Date,TemperatureHighF,TemperatureAvgF,TemperatureLowF,DewpointHighF,DewpointAvgF,DewpointLowF,HumidityHigh,HumidityAvg,HumidityLow,PressureMaxIn,PressureMinIn,WindSpeedMaxMPH,WindSpeedAvgMPH,GustSpeedMaxMPH,PrecipitationSumIn
2013-10-1,72.5,63.8,56.3,58.1,55.3,52.0,96,75,49,28.63,28.56,7,2,7,0.00
2013-10-2,75.9,66.9,61.2,60.2,56.5,53.0,88,71,46,28.65,28.58,8,2,8,0.00
2013-10-3,77.2,64.7,58.8,62.7,59.1,8.2,97,83,51,28.68,28.59,3,0,3,0.00
2013-10-4,75.2,66.1,63.5,65.2,61.5,58.3,94,85,61,28.67,28.60,4,1,4,0.05
2013-10-5,81.1,74.0,65.1,63.7,59.9,57.0,90,62,45,28.66,28.56,6,1,6,0.00
2013-10-6,83.8,71.7,63.1,62.9,58.2,50.1,90,66,33,28.58,28.41,9,2,9,0.00
2013-10-7,68.2,54.1,48.0,62.2,45.2,38.1,99,73,53,28.63,28.31,12,4,12,0.60
2013-10-8,62.2,52.5,43.3,46.3,39.7,36.2,95,64,38,28.81,28.61,7,2,9,0.00
2013-10-9,58.6,52.2,46.6,42.9,39.4,34.9,78,62,49,28.85,28.76,7,0,7,0.00
2013-10-10,54.3,51.1,48.4,51.9,45.7,36.7,99,83,58,28.76,28.60,6,1,6,0.63
2013-10-11,56.1,52.8,50.2,55.9,52.6,49.2,99,99,99,28.60,27.99,9,3,9,0.45
2013-10-12,60.4,57.3,53.6,60.2,57.0,53.3,99,99,99,28.73,28.57,7,1,7,0.56
2013-10-13,56.3,54.5,53.4,56.0,54.3,53.2,99,99,99,28.83,28.72,4,1,4,0.38
2013-10-14,72.3,54.2,52.0,56.8,53.9,12.7,99,99,99,28.83,28.75,4,1,4,0.09
2013-10-15,63.7,57.2,0.0,57.2,53.6,50.4,99,87,68,28.77,28.60,7,1,7,0.01
2013-10-16,63.3,61.4,59.9,57.1,54.6,53.1,87,78,72,28.52,28.44,4,1,4,0.47
2013-10-17,62.6,58.7,48.6,60.7,57.1,3.5,99,94,85,28.45,27.84,11,2,11,0.20
2013-10-18,60.3,50.5,45.0,45.6,37.3,30.0,89,63,33,27.98,27.84,9,3,9,0.00
2013-10-19,57.0,46.6,38.3,45.6,39.7,33.7,95,78,47,27.95,27.74,11,2,11,0.04
2013-10-20,56.7,46.3,38.7,34.8,30.5,-1.6,81,57,29,28.03,27.87,8,3,8,0.19
2013-10-21,65.3,50.2,36.5,37.8,32.5,28.3,79,54,26,28.04,27.86,9,1,9,0.00
2013-10-22,95.0,46.4,38.3,44.3,32.7,-5.6,80,60,10,27.87,27.79,8,2,8,0.19
2013-10-23,42.3,38.3,35.1,37.8,32.7,29.2,91,80,66,27.85,27.65,13,2,13,0.08
2013-10-24,41.2,34.6,33.1,32.1,29.2,24.4,91,81,55,28.03,27.84,11,2,11,0.01
2013-10-25,41.7,35.6,31.8,31.1,27.5,24.0,83,73,53,28.21,28.03,9,3,9,0.00
2013-10-26,51.6,40.5,30.4,27.1,20.2,6.6,83,51,17,28.19,27.85,15,3,15,0.00
2013-10-27,53.4,43.9,37.0,31.7,26.3,-1.8,75,51,10,28.05,27.88,9,3,9,0.00
2013-10-28,59.4,42.1,34.2,38.1,30.6,26.7,87,66,32,28.20,28.04,7,1,7,0.00
2013-10-29,60.4,45.8,34.5,34.7,31.4,29.2,83,59,31,28.29,28.20,4,1,4,0.00
2013-10-30,70.5,56.3,44.6,53.6,43.7,-7.6,82,64,10,28.21,28.08,5,1,5,0.00
2013-10-31,64.4,57.4,52.9,56.8,53.1,50.2,99,86,61,28.10,27.63,7,1,7,0.06